sensor_id;sensor_type;location;lat;lon;timestamp;temperature;humidity
14101;DHT22;7127;49.372;8.166;2023-03-01T00:01:11;4.40;42.50
14101;DHT22;7127;49.372;8.166;2023-03-01T00:03:38;4.30;42.40
14101;DHT22;7127;49.372;8.166;2023-03-01T00:06:06;4.30;42.50
14101;DHT22;7127;49.372;8.166;2023-03-01T00:08:34;4.30;42.50
14101;DHT22;7127;49.372;8.166;2023-03-01T00:11:03;4.30;42.50
14101;DHT22;7127;49.372;8.166;2023-03-01T00:13:30;4.30;42.50
14101;DHT22;7127;49.372;8.166;2023-03-01T00:15:57;4.30;42.40
14101;DHT22;7127;49.372;8.166;2023-03-01T00:18:24;4.30;43.00
14101;DHT22;7127;49.372;8.166;2023-03-01T00:20:51;4.30;42.50
14101;DHT22;7127;49.372;8.166;2023-03-01T00:23:19;4.30;42.70
14101;DHT22;7127;49.372;8.166;2023-03-01T00:25:46;4.30;42.60
14101;DHT22;7127;49.372;8.166;2023-03-01T00:28:14;4.30;42.70
14101;DHT22;7127;49.372;8.166;2023-03-01T00:30:41;4.40;42.60
14101;DHT22;7127;49.372;8.166;2023-03-01T00:33:08;4.80;43.10
14101;DHT22;7127;49.372;8.166;2023-03-01T00:35:37;4.30;42.70
14101;DHT22;7127;49.372;8.166;2023-03-01T00:38:04;4.20;42.90
14101;DHT22;7127;49.372;8.166;2023-03-01T00:40:34;4.20;42.90
14101;DHT22;7127;49.372;8.166;2023-03-01T00:43:01;4.30;42.90
14101;DHT22;7127;49.372;8.166;2023-03-01T00:45:29;4.20;42.90
14101;DHT22;7127;49.372;8.166;2023-03-01T00:47:57;4.20;42.90
14101;DHT22;7127;49.372;8.166;2023-03-01T00:50:24;4.20;42.80
14101;DHT22;7127;49.372;8.166;2023-03-01T00:52:52;4.20;43.00
14101;DHT22;7127;49.372;8.166;2023-03-01T00:55:19;4.20;43.20
14101;DHT22;7127;49.372;8.166;2023-03-01T00:57:48;4.20;43.70
14101;DHT22;7127;49.372;8.166;2023-03-01T01:00:15;4.10;43.20
14101;DHT22;7127;49.372;8.166;2023-03-01T01:02:42;4.10;43.10
14101;DHT22;7127;49.372;8.166;2023-03-01T01:05:09;4.10;43.40
14101;DHT22;7127;49.372;8.166;2023-03-01T01:07:36;4.20;43.60
14101;DHT22;7127;49.372;8.166;2023-03-01T01:10:03;4.00;43.40
14101;DHT22;7127;49.372;8.166;2023-03-01T01:12:31;4.00;43.30
14101;DHT22;7127;49.372;8.166;2023-03-01T01:15:00;4.00;43.30
14101;DHT22;7127;49.372;8.166;2023-03-01T01:17:27;4.00;43.40
14101;DHT22;7127;49.372;8.166;2023-03-01T01:19:53;4.00;43.40
14101;DHT22;7127;49.372;8.166;2023-03-01T01:22:20;4.00;43.70
14101;DHT22;7127;49.372;8.166;2023-03-01T01:24:47;3.90;44.10
14101;DHT22;7127;49.372;8.166;2023-03-01T01:27:14;3.90;44.00
14101;DHT22;7127;49.372;8.166;2023-03-01T01:29:41;3.90;43.70
14101;DHT22;7127;49.372;8.166;2023-03-01T01:32:12;3.90;43.80
14101;DHT22;7127;49.372;8.166;2023-03-01T01:34:39;3.80;43.90
14101;DHT22;7127;49.372;8.166;2023-03-01T01:37:06;3.90;44.10
14101;DHT22;7127;49.372;8.166;2023-03-01T01:39:33;3.80;43.80
14101;DHT22;7127;49.372;8.166;2023-03-01T01:42:00;3.80;44.80
14101;DHT22;7127;49.372;8.166;2023-03-01T01:44:28;3.80;44.20
14101;DHT22;7127;49.372;8.166;2023-03-01T01:46:57;3.80;44.20
14101;DHT22;7127;49.372;8.166;2023-03-01T01:49:32;3.80;44.10
14101;DHT22;7127;49.372;8.166;2023-03-01T01:52:05;3.80;44.30
14101;DHT22;7127;49.372;8.166;2023-03-01T01:54:39;3.80;44.20
14101;DHT22;7127;49.372;8.166;2023-03-01T01:57:11;3.80;44.40
14101;DHT22;7127;49.372;8.166;2023-03-01T01:59:39;3.80;44.10
14101;DHT22;7127;49.372;8.166;2023-03-01T02:02:07;3.80;43.90
14101;DHT22;7127;49.372;8.166;2023-03-01T02:04:36;3.80;44.40
14101;DHT22;7127;49.372;8.166;2023-03-01T02:07:07;3.80;44.20
14101;DHT22;7127;49.372;8.166;2023-03-01T02:09:35;3.80;43.90
14101;DHT22;7127;49.372;8.166;2023-03-01T02:12:03;4.10;44.20
14101;DHT22;7127;49.372;8.166;2023-03-01T02:14:31;3.80;44.40
14101;DHT22;7127;49.372;8.166;2023-03-01T02:16:58;3.80;44.50
14101;DHT22;7127;49.372;8.166;2023-03-01T02:19:39;3.80;44.50
14101;DHT22;7127;49.372;8.166;2023-03-01T02:22:15;3.80;44.70
14101;DHT22;7127;49.372;8.166;2023-03-01T02:24:57;3.80;44.30
14101;DHT22;7127;49.372;8.166;2023-03-01T02:27:33;3.80;44.20
14101;DHT22;7127;49.372;8.166;2023-03-01T02:30:04;3.80;44.40
14101;DHT22;7127;49.372;8.166;2023-03-01T02:32:32;3.80;45.00
14101;DHT22;7127;49.372;8.166;2023-03-01T02:34:58;3.80;44.40
14101;DHT22;7127;49.372;8.166;2023-03-01T02:37:26;3.80;44.50
14101;DHT22;7127;49.372;8.166;2023-03-01T02:39:56;3.80;44.30
14101;DHT22;7127;49.372;8.166;2023-03-01T02:42:28;3.80;44.40
14101;DHT22;7127;49.372;8.166;2023-03-01T02:44:56;3.90;44.30
14101;DHT22;7127;49.372;8.166;2023-03-01T02:47:25;4.10;44.70
14101;DHT22;7127;49.372;8.166;2023-03-01T02:49:51;3.90;44.40
14101;DHT22;7127;49.372;8.166;2023-03-01T02:52:30;3.80;44.70
14101;DHT22;7127;49.372;8.166;2023-03-01T02:55:02;3.90;44.60
14101;DHT22;7127;49.372;8.166;2023-03-01T02:57:31;3.90;44.40
14101;DHT22;7127;49.372;8.166;2023-03-01T03:00:03;3.80;44.40
14101;DHT22;7127;49.372;8.166;2023-03-01T03:02:34;3.80;44.90
14101;DHT22;7127;49.372;8.166;2023-03-01T03:05:07;3.80;45.00
14101;DHT22;7127;49.372;8.166;2023-03-01T03:07:34;3.70;44.90
14101;DHT22;7127;49.372;8.166;2023-03-01T03:10:04;3.70;44.90
14101;DHT22;7127;49.372;8.166;2023-03-01T03:12:31;3.70;44.80
14101;DHT22;7127;49.372;8.166;2023-03-01T03:14:58;3.70;44.90
14101;DHT22;7127;49.372;8.166;2023-03-01T03:17:25;3.60;44.80
14101;DHT22;7127;49.372;8.166;2023-03-01T03:19:53;3.70;44.90
14101;DHT22;7127;49.372;8.166;2023-03-01T03:22:20;3.70;44.80
14101;DHT22;7127;49.372;8.166;2023-03-01T03:24:47;3.60;44.50
14101;DHT22;7127;49.372;8.166;2023-03-01T03:27:14;3.70;44.50
14101;DHT22;7127;49.372;8.166;2023-03-01T03:29:40;3.70;44.60
14101;DHT22;7127;49.372;8.166;2023-03-01T03:32:07;3.70;44.50
14101;DHT22;7127;49.372;8.166;2023-03-01T03:34:34;3.70;44.80
14101;DHT22;7127;49.372;8.166;2023-03-01T03:37:02;3.80;44.70
14101;DHT22;7127;49.372;8.166;2023-03-01T03:39:29;4.50;45.60
14101;DHT22;7127;49.372;8.166;2023-03-01T03:42:00;3.60;44.70
14101;DHT22;7127;49.372;8.166;2023-03-01T03:44:27;3.60;44.80
14101;DHT22;7127;49.372;8.166;2023-03-01T03:46:54;3.60;44.80
14101;DHT22;7127;49.372;8.166;2023-03-01T03:49:20;3.50;44.80
14101;DHT22;7127;49.372;8.166;2023-03-01T03:51:47;3.50;45.10
14101;DHT22;7127;49.372;8.166;2023-03-01T03:54:16;3.50;44.80
14101;DHT22;7127;49.372;8.166;2023-03-01T03:56:42;3.50;44.80
14101;DHT22;7127;49.372;8.166;2023-03-01T03:59:09;3.50;45.30
14101;DHT22;7127;49.372;8.166;2023-03-01T04:01:36;3.40;45.20
14101;DHT22;7127;49.372;8.166;2023-03-01T04:04:04;3.80;45.20
14101;DHT22;7127;49.372;8.166;2023-03-01T04:06:35;3.60;45.10
14101;DHT22;7127;49.372;8.166;2023-03-01T04:09:02;3.50;45.00
14101;DHT22;7127;49.372;8.166;2023-03-01T04:11:30;3.40;44.80
14101;DHT22;7127;49.372;8.166;2023-03-01T04:14:00;3.80;45.40
14101;DHT22;7127;49.372;8.166;2023-03-01T04:16:30;3.50;45.20
14101;DHT22;7127;49.372;8.166;2023-03-01T04:18:58;3.40;45.10
14101;DHT22;7127;49.372;8.166;2023-03-01T04:21:26;3.40;45.50
14101;DHT22;7127;49.372;8.166;2023-03-01T04:23:53;3.40;45.40
14101;DHT22;7127;49.372;8.166;2023-03-01T04:26:21;3.40;45.10
14101;DHT22;7127;49.372;8.166;2023-03-01T04:28:49;3.40;45.70
14101;DHT22;7127;49.372;8.166;2023-03-01T04:31:18;3.40;45.60
14101;DHT22;7127;49.372;8.166;2023-03-01T04:33:48;3.30;45.50
14101;DHT22;7127;49.372;8.166;2023-03-01T04:36:17;3.30;45.40
14101;DHT22;7127;49.372;8.166;2023-03-01T04:38:45;3.30;45.80
14101;DHT22;7127;49.372;8.166;2023-03-01T04:41:13;3.30;45.70
14101;DHT22;7127;49.372;8.166;2023-03-01T04:43:40;3.20;45.70
14101;DHT22;7127;49.372;8.166;2023-03-01T04:46:10;3.20;45.70
14101;DHT22;7127;49.372;8.166;2023-03-01T04:48:39;3.20;46.20
14101;DHT22;7127;49.372;8.166;2023-03-01T04:51:07;3.20;46.00
14101;DHT22;7127;49.372;8.166;2023-03-01T04:53:40;3.20;45.70
14101;DHT22;7127;49.372;8.166;2023-03-01T04:56:13;3.20;45.70
14101;DHT22;7127;49.372;8.166;2023-03-01T04:58:40;3.20;45.70
14101;DHT22;7127;49.372;8.166;2023-03-01T05:01:12;3.20;45.70
14101;DHT22;7127;49.372;8.166;2023-03-01T05:03:42;3.30;46.10
14101;DHT22;7127;49.372;8.166;2023-03-01T05:06:09;3.30;46.10
14101;DHT22;7127;49.372;8.166;2023-03-01T05:08:37;3.30;45.80
14101;DHT22;7127;49.372;8.166;2023-03-01T05:11:05;3.30;45.80
14101;DHT22;7127;49.372;8.166;2023-03-01T05:13:34;3.30;45.70
14101;DHT22;7127;49.372;8.166;2023-03-01T05:16:02;3.40;45.70
14101;DHT22;7127;49.372;8.166;2023-03-01T05:18:33;3.40;45.70
14101;DHT22;7127;49.372;8.166;2023-03-01T05:21:03;3.40;45.80
14101;DHT22;7127;49.372;8.166;2023-03-01T05:23:30;3.40;46.50
14101;DHT22;7127;49.372;8.166;2023-03-01T05:25:58;3.30;46.10
14101;DHT22;7127;49.372;8.166;2023-03-01T05:28:25;3.30;46.00
14101;DHT22;7127;49.372;8.166;2023-03-01T05:30:53;3.30;46.30
14101;DHT22;7127;49.372;8.166;2023-03-01T05:33:20;3.30;46.20
14101;DHT22;7127;49.372;8.166;2023-03-01T05:35:50;3.30;46.60
14101;DHT22;7127;49.372;8.166;2023-03-01T05:38:17;3.20;46.50
14101;DHT22;7127;49.372;8.166;2023-03-01T05:40:45;3.20;46.60
14101;DHT22;7127;49.372;8.166;2023-03-01T05:43:15;3.20;46.30
14101;DHT22;7127;49.372;8.166;2023-03-01T05:45:43;3.10;46.90
14101;DHT22;7127;49.372;8.166;2023-03-01T05:48:11;3.10;47.00
14101;DHT22;7127;49.372;8.166;2023-03-01T05:50:40;3.10;46.50
14101;DHT22;7127;49.372;8.166;2023-03-01T05:53:11;3.10;46.30
14101;DHT22;7127;49.372;8.166;2023-03-01T05:55:39;3.20;46.40
14101;DHT22;7127;49.372;8.166;2023-03-01T05:58:07;3.40;46.50
14101;DHT22;7127;49.372;8.166;2023-03-01T06:00:35;3.30;46.60
14101;DHT22;7127;49.372;8.166;2023-03-01T06:03:02;3.30;46.50
14101;DHT22;7127;49.372;8.166;2023-03-01T06:05:29;3.30;46.50
14101;DHT22;7127;49.372;8.166;2023-03-01T06:07:59;3.30;46.30
14101;DHT22;7127;49.372;8.166;2023-03-01T06:10:27;3.30;46.40
14101;DHT22;7127;49.372;8.166;2023-03-01T06:12:55;3.30;46.40
14101;DHT22;7127;49.372;8.166;2023-03-01T06:15:22;3.30;46.30
14101;DHT22;7127;49.372;8.166;2023-03-01T06:17:50;3.40;46.50
14101;DHT22;7127;49.372;8.166;2023-03-01T06:20:19;3.40;46.40
14101;DHT22;7127;49.372;8.166;2023-03-01T06:22:47;3.50;46.40
14101;DHT22;7127;49.372;8.166;2023-03-01T06:25:16;4.30;47.40
14101;DHT22;7127;49.372;8.166;2023-03-01T06:27:45;3.50;46.50
14101;DHT22;7127;49.372;8.166;2023-03-01T06:30:14;3.50;46.50
14101;DHT22;7127;49.372;8.166;2023-03-01T06:32:41;3.50;46.80
14101;DHT22;7127;49.372;8.166;2023-03-01T06:35:09;3.50;46.50
14101;DHT22;7127;49.372;8.166;2023-03-01T06:37:36;3.60;46.50
14101;DHT22;7127;49.372;8.166;2023-03-01T06:40:04;3.60;46.40
14101;DHT22;7127;49.372;8.166;2023-03-01T06:42:33;3.60;46.40
14101;DHT22;7127;49.372;8.166;2023-03-01T06:45:02;3.70;46.50
14101;DHT22;7127;49.372;8.166;2023-03-01T06:47:29;3.70;46.50
14101;DHT22;7127;49.372;8.166;2023-03-01T06:49:56;3.70;46.50
14101;DHT22;7127;49.372;8.166;2023-03-01T06:52:23;3.80;46.70
14101;DHT22;7127;49.372;8.166;2023-03-01T06:54:49;3.80;46.40
14101;DHT22;7127;49.372;8.166;2023-03-01T06:57:17;3.80;46.80
14101;DHT22;7127;49.372;8.166;2023-03-01T06:59:43;3.80;46.80
14101;DHT22;7127;49.372;8.166;2023-03-01T07:02:12;3.80;46.80
14101;DHT22;7127;49.372;8.166;2023-03-01T07:04:39;3.90;46.60
14101;DHT22;7127;49.372;8.166;2023-03-01T07:07:06;3.90;46.50
14101;DHT22;7127;49.372;8.166;2023-03-01T07:09:33;3.90;46.80
14101;DHT22;7127;49.372;8.166;2023-03-01T07:12:00;4.00;46.60
14101;DHT22;7127;49.372;8.166;2023-03-01T07:14:27;4.00;46.60
14101;DHT22;7127;49.372;8.166;2023-03-01T07:16:54;4.00;46.40
14101;DHT22;7127;49.372;8.166;2023-03-01T07:19:23;4.10;46.40
14101;DHT22;7127;49.372;8.166;2023-03-01T07:21:50;4.10;46.40
14101;DHT22;7127;49.372;8.166;2023-03-01T07:24:16;4.20;46.40
14101;DHT22;7127;49.372;8.166;2023-03-01T07:26:44;4.20;46.30
14101;DHT22;7127;49.372;8.166;2023-03-01T07:29:11;4.20;46.30
14101;DHT22;7127;49.372;8.166;2023-03-01T07:31:37;4.20;46.20
14101;DHT22;7127;49.372;8.166;2023-03-01T07:34:04;4.20;46.10
14101;DHT22;7127;49.372;8.166;2023-03-01T07:36:32;4.30;46.20
14101;DHT22;7127;49.372;8.166;2023-03-01T07:38:59;4.30;46.20
14101;DHT22;7127;49.372;8.166;2023-03-01T07:41:28;4.20;46.10
14101;DHT22;7127;49.372;8.166;2023-03-01T07:43:55;4.30;46.40
14101;DHT22;7127;49.372;8.166;2023-03-01T07:46:21;4.30;46.20
14101;DHT22;7127;49.372;8.166;2023-03-01T07:48:48;4.50;46.40
14101;DHT22;7127;49.372;8.166;2023-03-01T07:51:15;5.10;46.80
14101;DHT22;7127;49.372;8.166;2023-03-01T07:53:46;4.40;46.40
14101;DHT22;7127;49.372;8.166;2023-03-01T07:56:14;4.40;46.40
14101;DHT22;7127;49.372;8.166;2023-03-01T07:58:43;4.40;46.40
14101;DHT22;7127;49.372;8.166;2023-03-01T08:01:12;4.40;46.20
14101;DHT22;7127;49.372;8.166;2023-03-01T08:03:39;4.40;46.30
14101;DHT22;7127;49.372;8.166;2023-03-01T08:06:08;4.80;46.50
14101;DHT22;7127;49.372;8.166;2023-03-01T08:08:35;4.50;46.20
14101;DHT22;7127;49.372;8.166;2023-03-01T08:11:06;4.50;46.50
14101;DHT22;7127;49.372;8.166;2023-03-01T08:13:33;5.10;46.80
14101;DHT22;7127;49.372;8.166;2023-03-01T08:16:04;4.70;46.50
14101;DHT22;7127;49.372;8.166;2023-03-01T08:18:32;4.50;46.40
14101;DHT22;7127;49.372;8.166;2023-03-01T08:21:02;4.60;46.50
14101;DHT22;7127;49.372;8.166;2023-03-01T08:23:29;4.80;46.50
14101;DHT22;7127;49.372;8.166;2023-03-01T08:26:05;4.70;46.60
14101;DHT22;7127;49.372;8.166;2023-03-01T08:28:33;4.70;46.80
14101;DHT22;7127;49.372;8.166;2023-03-01T08:31:00;4.70;46.80
14101;DHT22;7127;49.372;8.166;2023-03-01T08:33:27;5.00;47.00
14101;DHT22;7127;49.372;8.166;2023-03-01T08:36:02;4.90;47.00
14101;DHT22;7127;49.372;8.166;2023-03-01T08:38:29;5.00;47.10
14101;DHT22;7127;49.372;8.166;2023-03-01T08:40:59;4.70;46.80
14101;DHT22;7127;49.372;8.166;2023-03-01T08:43:29;4.80;46.90
14101;DHT22;7127;49.372;8.166;2023-03-01T08:45:55;4.90;47.00
14101;DHT22;7127;49.372;8.166;2023-03-01T08:48:22;5.10;47.10
14101;DHT22;7127;49.372;8.166;2023-03-01T08:50:49;4.90;46.90
14101;DHT22;7127;49.372;8.166;2023-03-01T08:53:16;5.20;47.00
14101;DHT22;7127;49.372;8.166;2023-03-01T08:55:43;5.00;46.80
14101;DHT22;7127;49.372;8.166;2023-03-01T08:58:10;5.10;46.90
14101;DHT22;7127;49.372;8.166;2023-03-01T09:00:39;5.20;46.90
14101;DHT22;7127;49.372;8.166;2023-03-01T09:03:05;5.70;47.10
14101;DHT22;7127;49.372;8.166;2023-03-01T09:05:33;5.50;46.80
14101;DHT22;7127;49.372;8.166;2023-03-01T09:08:02;5.50;46.80
14101;DHT22;7127;49.372;8.166;2023-03-01T09:10:29;5.30;46.60
14101;DHT22;7127;49.372;8.166;2023-03-01T09:12:55;5.40;46.70
14101;DHT22;7127;49.372;8.166;2023-03-01T09:15:22;5.50;46.70
14101;DHT22;7127;49.372;8.166;2023-03-01T09:17:51;5.40;46.50
14101;DHT22;7127;49.372;8.166;2023-03-01T09:20:17;6.00;46.90
14101;DHT22;7127;49.372;8.166;2023-03-01T09:22:44;5.50;46.50
14101;DHT22;7127;49.372;8.166;2023-03-01T09:25:11;5.60;46.40
14101;DHT22;7127;49.372;8.166;2023-03-01T09:27:41;5.70;46.50
14101;DHT22;7127;49.372;8.166;2023-03-01T09:30:10;5.70;46.40
14101;DHT22;7127;49.372;8.166;2023-03-01T09:32:39;5.80;46.30
14101;DHT22;7127;49.372;8.166;2023-03-01T09:35:12;5.80;46.20
14101;DHT22;7127;49.372;8.166;2023-03-01T09:37:45;5.80;46.20
14101;DHT22;7127;49.372;8.166;2023-03-01T09:40:15;5.90;46.30
14101;DHT22;7127;49.372;8.166;2023-03-01T09:42:51;6.00;46.50
14101;DHT22;7127;49.372;8.166;2023-03-01T09:45:26;6.00;46.40
14101;DHT22;7127;49.372;8.166;2023-03-01T09:47:54;6.10;46.40
14101;DHT22;7127;49.372;8.166;2023-03-01T09:50:27;6.10;46.30
14101;DHT22;7127;49.372;8.166;2023-03-01T09:53:01;6.20;46.20
14101;DHT22;7127;49.372;8.166;2023-03-01T09:55:31;6.30;46.20
14101;DHT22;7127;49.372;8.166;2023-03-01T09:58:04;6.30;46.10
14101;DHT22;7127;49.372;8.166;2023-03-01T10:00:38;6.40;46.10
14101;DHT22;7127;49.372;8.166;2023-03-01T10:03:14;6.50;45.90
14101;DHT22;7127;49.372;8.166;2023-03-01T10:05:58;6.70;46.00
14101;DHT22;7127;49.372;8.166;2023-03-01T10:08:40;6.60;45.80
14101;DHT22;7127;49.372;8.166;2023-03-01T10:11:20;6.60;45.80
14101;DHT22;7127;49.372;8.166;2023-03-01T10:13:52;6.70;45.80
14101;DHT22;7127;49.372;8.166;2023-03-01T10:16:36;6.70;45.60
14101;DHT22;7127;49.372;8.166;2023-03-01T10:19:10;6.70;45.20
14101;DHT22;7127;49.372;8.166;2023-03-01T10:21:44;6.80;45.50
14101;DHT22;7127;49.372;8.166;2023-03-01T10:24:13;6.80;45.50
14101;DHT22;7127;49.372;8.166;2023-03-01T10:26:47;6.90;45.50
14101;DHT22;7127;49.372;8.166;2023-03-01T10:29:15;7.50;45.90
14101;DHT22;7127;49.372;8.166;2023-03-01T10:31:43;6.90;45.30
14101;DHT22;7127;49.372;8.166;2023-03-01T10:34:20;7.00;45.30
14101;DHT22;7127;49.372;8.166;2023-03-01T10:36:50;7.00;45.20
14101;DHT22;7127;49.372;8.166;2023-03-01T10:39:19;7.10;45.10
14101;DHT22;7127;49.372;8.166;2023-03-01T10:41:56;7.10;45.30
14101;DHT22;7127;49.372;8.166;2023-03-01T10:44:40;7.10;45.10
14101;DHT22;7127;49.372;8.166;2023-03-01T10:47:14;7.20;45.00
14101;DHT22;7127;49.372;8.166;2023-03-01T10:49:56;7.20;44.70
14101;DHT22;7127;49.372;8.166;2023-03-01T10:52:27;7.20;44.40
14101;DHT22;7127;49.372;8.166;2023-03-01T10:54:56;7.20;44.20
14101;DHT22;7127;49.372;8.166;2023-03-01T10:57:33;7.30;44.60
14101;DHT22;7127;49.372;8.166;2023-03-01T11:00:21;7.20;44.30
14101;DHT22;7127;49.372;8.166;2023-03-01T11:02:50;7.30;44.70
14101;DHT22;7127;49.372;8.166;2023-03-01T11:05:24;7.30;44.70
14101;DHT22;7127;49.372;8.166;2023-03-01T11:07:54;7.30;44.60
14101;DHT22;7127;49.372;8.166;2023-03-01T11:10:24;7.30;44.60
14101;DHT22;7127;49.372;8.166;2023-03-01T11:12:52;7.40;44.70
14101;DHT22;7127;49.372;8.166;2023-03-01T11:15:26;7.50;44.90
14101;DHT22;7127;49.372;8.166;2023-03-01T11:17:53;7.50;44.80
14101;DHT22;7127;49.372;8.166;2023-03-01T11:20:27;7.50;44.90
14101;DHT22;7127;49.372;8.166;2023-03-01T11:23:00;7.60;44.90
14101;DHT22;7127;49.372;8.166;2023-03-01T11:25:31;7.60;44.70
14101;DHT22;7127;49.372;8.166;2023-03-01T11:28:00;7.60;44.70
14101;DHT22;7127;49.372;8.166;2023-03-01T11:30:31;7.70;44.20
14101;DHT22;7127;49.372;8.166;2023-03-01T11:33:10;7.70;44.10
14101;DHT22;7127;49.372;8.166;2023-03-01T11:35:44;7.70;44.30
14101;DHT22;7127;49.372;8.166;2023-03-01T11:38:21;7.70;44.60
14101;DHT22;7127;49.372;8.166;2023-03-01T11:40:53;7.80;43.90
14101;DHT22;7127;49.372;8.166;2023-03-01T11:43:30;7.80;43.80
14101;DHT22;7127;49.372;8.166;2023-03-01T11:46:33;7.90;43.50
14101;DHT22;7127;49.372;8.166;2023-03-01T11:49:15;7.90;43.00
14101;DHT22;7127;49.372;8.166;2023-03-01T11:51:50;7.90;43.70
14101;DHT22;7127;49.372;8.166;2023-03-01T11:54:28;8.20;44.10
14101;DHT22;7127;49.372;8.166;2023-03-01T11:57:01;8.00;43.80
14101;DHT22;7127;49.372;8.166;2023-03-01T11:59:49;8.40;44.10
14101;DHT22;7127;49.372;8.166;2023-03-01T12:02:34;8.30;43.90
14101;DHT22;7127;49.372;8.166;2023-03-01T12:05:40;8.30;43.90
14101;DHT22;7127;49.372;8.166;2023-03-01T12:08:18;8.40;43.80
14101;DHT22;7127;49.372;8.166;2023-03-01T12:10:57;8.40;43.70
14101;DHT22;7127;49.372;8.166;2023-03-01T12:13:56;8.50;43.70
14101;DHT22;7127;49.372;8.166;2023-03-01T12:19:38;8.70;43.30
14101;DHT22;7127;49.372;8.166;2023-03-01T12:22:21;8.70;43.40
14101;DHT22;7127;49.372;8.166;2023-03-01T12:25:02;8.80;43.50
14101;DHT22;7127;49.372;8.166;2023-03-01T12:28:03;8.80;43.30
14101;DHT22;7127;49.372;8.166;2023-03-01T12:30:43;8.90;43.20
14101;DHT22;7127;49.372;8.166;2023-03-01T12:33:27;8.90;42.40
14101;DHT22;7127;49.372;8.166;2023-03-01T12:39:00;9.00;43.00
14101;DHT22;7127;49.372;8.166;2023-03-01T12:41:46;9.10;43.10
14101;DHT22;7127;49.372;8.166;2023-03-01T12:44:41;9.10;42.80
14101;DHT22;7127;49.372;8.166;2023-03-01T12:47:23;9.10;42.80
14101;DHT22;7127;49.372;8.166;2023-03-01T12:49:57;9.20;42.80
14101;DHT22;7127;49.372;8.166;2023-03-01T12:52:29;9.20;42.40
14101;DHT22;7127;49.372;8.166;2023-03-01T12:55:01;9.20;42.40
14101;DHT22;7127;49.372;8.166;2023-03-01T12:57:34;9.30;42.60
14101;DHT22;7127;49.372;8.166;2023-03-01T13:00:18;9.40;42.40
14101;DHT22;7127;49.372;8.166;2023-03-01T13:02:54;9.30;42.40
14101;DHT22;7127;49.372;8.166;2023-03-01T13:05:33;9.30;41.90
14101;DHT22;7127;49.372;8.166;2023-03-01T13:08:09;9.40;42.30
14101;DHT22;7127;49.372;8.166;2023-03-01T13:10:43;9.40;42.20
14101;DHT22;7127;49.372;8.166;2023-03-01T13:13:19;9.50;42.80
14101;DHT22;7127;49.372;8.166;2023-03-01T13:15:48;9.60;42.30
14101;DHT22;7127;49.372;8.166;2023-03-01T13:18:30;9.60;42.20
14101;DHT22;7127;49.372;8.166;2023-03-01T13:20:59;9.60;41.90
14101;DHT22;7127;49.372;8.166;2023-03-01T13:23:29;9.60;41.60
14101;DHT22;7127;49.372;8.166;2023-03-01T13:26:09;9.60;42.00
14101;DHT22;7127;49.372;8.166;2023-03-01T13:32:00;9.70;42.00
14101;DHT22;7127;49.372;8.166;2023-03-01T13:34:57;9.90;42.60
14101;DHT22;7127;49.372;8.166;2023-03-01T13:37:26;10.10;41.00
14101;DHT22;7127;49.372;8.166;2023-03-01T13:39:56;9.90;41.80
14101;DHT22;7127;49.372;8.166;2023-03-01T13:42:45;9.90;41.90
14101;DHT22;7127;49.372;8.166;2023-03-01T13:45:21;10.00;41.00
14101;DHT22;7127;49.372;8.166;2023-03-01T13:47:56;10.00;40.60
14101;DHT22;7127;49.372;8.166;2023-03-01T13:50:27;10.00;40.80
14101;DHT22;7127;49.372;8.166;2023-03-01T13:52:57;10.30;41.00
14101;DHT22;7127;49.372;8.166;2023-03-01T13:55:30;10.10;40.70
14101;DHT22;7127;49.372;8.166;2023-03-01T13:58:01;10.10;40.30
14101;DHT22;7127;49.372;8.166;2023-03-01T14:00:36;10.20;40.30
14101;DHT22;7127;49.372;8.166;2023-03-01T14:03:09;10.30;40.30
14101;DHT22;7127;49.372;8.166;2023-03-01T14:05:37;10.20;40.40
14101;DHT22;7127;49.372;8.166;2023-03-01T14:08:17;10.40;40.30
14101;DHT22;7127;49.372;8.166;2023-03-01T14:11:05;10.50;40.20
14101;DHT22;7127;49.372;8.166;2023-03-01T14:13:48;10.30;40.00
14101;DHT22;7127;49.372;8.166;2023-03-01T14:16:24;10.40;40.10
14101;DHT22;7127;49.372;8.166;2023-03-01T14:19:05;10.30;40.00
14101;DHT22;7127;49.372;8.166;2023-03-01T14:21:34;10.40;40.00
14101;DHT22;7127;49.372;8.166;2023-03-01T14:24:02;10.40;40.00
14101;DHT22;7127;49.372;8.166;2023-03-01T14:26:31;10.40;39.90
14101;DHT22;7127;49.372;8.166;2023-03-01T14:28:58;10.40;39.90
14101;DHT22;7127;49.372;8.166;2023-03-01T14:31:37;10.50;39.70
14101;DHT22;7127;49.372;8.166;2023-03-01T14:34:05;10.50;39.80
14101;DHT22;7127;49.372;8.166;2023-03-01T14:36:33;10.50;38.80
14101;DHT22;7127;49.372;8.166;2023-03-01T14:39:01;10.50;39.30
14101;DHT22;7127;49.372;8.166;2023-03-01T14:41:33;10.40;38.90
14101;DHT22;7127;49.372;8.166;2023-03-01T14:44:03;10.50;39.20
14101;DHT22;7127;49.372;8.166;2023-03-01T14:46:34;10.50;39.30
14101;DHT22;7127;49.372;8.166;2023-03-01T14:49:05;10.60;39.30
14101;DHT22;7127;49.372;8.166;2023-03-01T14:51:36;10.60;39.30
14101;DHT22;7127;49.372;8.166;2023-03-01T14:54:05;10.60;39.20
14101;DHT22;7127;49.372;8.166;2023-03-01T14:56:43;10.50;39.00
14101;DHT22;7127;49.372;8.166;2023-03-01T14:59:11;10.50;39.10
14101;DHT22;7127;49.372;8.166;2023-03-01T15:01:40;10.50;39.10
14101;DHT22;7127;49.372;8.166;2023-03-01T15:04:11;10.50;38.90
14101;DHT22;7127;49.372;8.166;2023-03-01T15:06:39;10.60;39.50
14101;DHT22;7127;49.372;8.166;2023-03-01T15:09:06;10.60;38.80
14101;DHT22;7127;49.372;8.166;2023-03-01T15:11:39;10.60;39.00
14101;DHT22;7127;49.372;8.166;2023-03-01T15:14:27;10.60;39.10
14101;DHT22;7127;49.372;8.166;2023-03-01T15:16:54;10.60;39.00
14101;DHT22;7127;49.372;8.166;2023-03-01T15:19:24;10.60;39.00
14101;DHT22;7127;49.372;8.166;2023-03-01T15:21:53;10.60;38.80
14101;DHT22;7127;49.372;8.166;2023-03-01T15:24:23;10.60;38.50
14101;DHT22;7127;49.372;8.166;2023-03-01T15:26:52;10.60;38.80
14101;DHT22;7127;49.372;8.166;2023-03-01T15:29:22;10.70;39.00
14101;DHT22;7127;49.372;8.166;2023-03-01T15:31:57;10.60;38.90
14101;DHT22;7127;49.372;8.166;2023-03-01T15:34:27;10.60;38.90
14101;DHT22;7127;49.372;8.166;2023-03-01T15:36:56;10.60;38.80
14101;DHT22;7127;49.372;8.166;2023-03-01T15:39:37;10.60;38.90
14101;DHT22;7127;49.372;8.166;2023-03-01T15:42:07;10.60;38.90
14101;DHT22;7127;49.372;8.166;2023-03-01T15:44:37;10.70;38.90
14101;DHT22;7127;49.372;8.166;2023-03-01T15:47:22;10.60;38.90
14101;DHT22;7127;49.372;8.166;2023-03-01T15:49:53;10.60;38.80
14101;DHT22;7127;49.372;8.166;2023-03-01T15:52:23;10.60;38.80
14101;DHT22;7127;49.372;8.166;2023-03-01T15:54:55;10.60;38.80
14101;DHT22;7127;49.372;8.166;2023-03-01T15:57:22;10.60;38.80
14101;DHT22;7127;49.372;8.166;2023-03-01T15:59:49;10.70;38.80
14101;DHT22;7127;49.372;8.166;2023-03-01T16:02:15;10.90;39.10
14101;DHT22;7127;49.372;8.166;2023-03-01T16:04:42;10.60;38.80
14101;DHT22;7127;49.372;8.166;2023-03-01T16:07:11;10.60;38.80
14101;DHT22;7127;49.372;8.166;2023-03-01T16:09:37;10.60;38.80
14101;DHT22;7127;49.372;8.166;2023-03-01T16:12:08;10.50;38.90
14101;DHT22;7127;49.372;8.166;2023-03-01T16:14:36;10.50;38.80
14101;DHT22;7127;49.372;8.166;2023-03-01T16:17:03;10.50;38.80
14101;DHT22;7127;49.372;8.166;2023-03-01T16:19:30;10.40;38.70
14101;DHT22;7127;49.372;8.166;2023-03-01T16:21:57;10.50;38.80
14101;DHT22;7127;49.372;8.166;2023-03-01T16:24:25;10.50;38.80
14101;DHT22;7127;49.372;8.166;2023-03-01T16:26:52;10.50;38.80
14101;DHT22;7127;49.372;8.166;2023-03-01T16:29:19;10.40;38.70
14101;DHT22;7127;49.372;8.166;2023-03-01T16:31:46;10.40;38.80